createdAt,value
2022-12-01T00:01:13.016Z,52.67
2022-12-01T00:03:40.146Z,50.40
2022-12-01T00:06:11.564Z,54.13
2022-12-01T00:08:38.823Z,46.53
2022-12-01T00:11:10.585Z,51.42
2022-12-01T00:13:37.766Z,49.60
2022-12-01T00:16:17.451Z,51.47
2022-12-01T00:18:44.395Z,59.95
2022-12-01T00:21:15.839Z,54.47
2022-12-01T00:23:50.194Z,49.83
2022-12-01T00:26:18.526Z,59.05
2022-12-01T00:28:49.448Z,52.58
2022-12-01T00:31:16.082Z,51.45
2022-12-01T00:33:42.730Z,46.22
2022-12-01T00:36:10.287Z,52.80
2022-12-01T00:38:37.377Z,52.40
2022-12-01T00:41:04.385Z,54.15
2022-12-01T00:43:31.022Z,58.47
2022-12-01T00:45:58.780Z,48.28
2022-12-01T00:48:25.461Z,52.80
2022-12-01T00:50:53.236Z,48.53
2022-12-01T00:53:20.891Z,51.35
2022-12-01T00:55:47.642Z,56.20
2022-12-01T00:58:14.238Z,54.40
2022-12-01T01:00:40.807Z,60.35
2022-12-01T01:03:07.705Z,51.22
2022-12-01T01:05:42.118Z,51.78
2022-12-01T01:08:13.799Z,49.85
2022-12-01T01:10:45.154Z,53.20
2022-12-01T01:13:13.436Z,50.15
2022-12-01T01:15:41.279Z,55.17
2022-12-01T01:18:09.610Z,50.35
2022-12-01T01:20:36.320Z,60.25
2022-12-01T01:23:03.157Z,50.25
2022-12-01T01:25:31.819Z,52.00
2022-12-01T01:27:58.374Z,50.22
2022-12-01T01:30:25.076Z,59.17
2022-12-01T01:32:51.664Z,56.20
2022-12-01T01:35:18.179Z,55.53
2022-12-01T01:37:44.696Z,53.78
2022-12-01T01:40:11.694Z,49.78
2022-12-01T01:42:38.362Z,55.28
2022-12-01T01:45:17.753Z,49.33
2022-12-01T01:47:44.560Z,49.95
2022-12-01T01:50:15.332Z,51.63
2022-12-01T01:52:46.121Z,59.00
2022-12-01T01:55:13.741Z,59.50
2022-12-01T01:57:40.666Z,53.20
2022-12-01T02:00:10.393Z,52.55
2022-12-01T02:02:40.684Z,49.78
2022-12-01T02:05:11.141Z,46.72
2022-12-01T02:07:39.324Z,50.20
2022-12-01T02:10:08.893Z,48.83
2022-12-01T02:13:03.646Z,49.10
2022-12-01T02:15:44.793Z,48.55
2022-12-01T02:18:45.070Z,55.83
2022-12-01T02:21:14.645Z,62.65
2022-12-01T02:23:41.152Z,55.03
2022-12-01T02:26:16.744Z,50.42
2022-12-01T02:28:55.236Z,54.35
2022-12-01T02:31:44.268Z,64.63
2022-12-01T02:34:11.203Z,50.00
2022-12-01T02:36:50.256Z,54.65
2022-12-01T02:39:25.386Z,52.42
2022-12-01T02:44:35.975Z,58.88
2022-12-01T02:47:13.521Z,45.78
2022-12-01T02:49:58.981Z,55.58
2022-12-01T02:54:53.916Z,57.78
2022-12-01T02:57:21.162Z,63.08
2022-12-01T02:59:54.301Z,56.63
2022-12-01T03:02:51.933Z,60.67
2022-12-01T03:05:28.935Z,56.17
2022-12-01T03:08:27.387Z,64.05
2022-12-01T03:10:56.948Z,63.22
2022-12-01T03:13:47.630Z,53.97
2022-12-01T03:16:25.102Z,58.22
2022-12-01T03:19:06.328Z,69.47
2022-12-01T03:21:44.406Z,53.63
2022-12-01T03:24:17.911Z,60.80
2022-12-01T03:26:50.103Z,61.10
2022-12-01T03:29:22.124Z,61.42
2022-12-01T03:31:53.757Z,60.65
2022-12-01T03:34:29.583Z,60.85
2022-12-01T03:37:01.787Z,69.28
2022-12-01T03:39:33.491Z,58.58
2022-12-01T03:42:14.964Z,55.70
2022-12-01T03:44:47.703Z,59.40
2022-12-01T03:47:17.787Z,56.45
2022-12-01T03:49:46.713Z,58.90
2022-12-01T03:52:32.039Z,52.17
2022-12-01T03:55:09.200Z,58.90
2022-12-01T03:57:46.303Z,60.22
2022-12-01T04:00:15.307Z,54.75
2022-12-01T04:02:42.817Z,58.17
2022-12-01T04:05:09.837Z,60.08
2022-12-01T04:07:37.977Z,62.60
2022-12-01T04:10:08.125Z,59.85
2022-12-01T04:12:34.668Z,63.08
2022-12-01T04:15:12.568Z,60.00
2022-12-01T04:17:40.533Z,56.00
2022-12-01T04:20:08.039Z,55.35
2022-12-01T04:22:35.351Z,63.17
2022-12-01T04:25:02.415Z,57.90
2022-12-01T04:27:28.924Z,54.97
2022-12-01T04:29:55.435Z,59.78
2022-12-01T04:32:22.142Z,57.97
2022-12-01T04:34:48.760Z,72.22
2022-12-01T04:37:15.492Z,62.55
2022-12-01T04:39:42.352Z,63.55
2022-12-01T04:42:10.257Z,55.63
2022-12-01T04:44:37.142Z,56.10
2022-12-01T04:47:05.851Z,56.22
2022-12-01T04:49:33.674Z,51.53
2022-12-01T04:52:00.236Z,60.90
2022-12-01T04:54:26.977Z,62.90
2022-12-01T04:56:53.639Z,61.20
2022-12-01T04:59:20.348Z,61.15
2022-12-01T05:01:48.257Z,60.13
2022-12-01T05:04:15.574Z,57.03
2022-12-01T05:06:42.427Z,52.00
2022-12-01T05:09:17.087Z,56.13
2022-12-01T05:11:43.938Z,66.75
2022-12-01T05:14:10.996Z,54.35
2022-12-01T05:16:37.747Z,51.45
2022-12-01T05:19:24.583Z,60.70
2022-12-01T05:21:51.949Z,49.90
2022-12-01T05:24:20.232Z,55.33
2022-12-01T05:26:46.991Z,54.83
2022-12-01T05:29:13.821Z,61.03
2022-12-01T05:31:40.417Z,60.85
2022-12-01T05:34:08.287Z,56.28
2022-12-01T05:36:35.569Z,56.90
2022-12-01T05:39:02.092Z,55.72
2022-12-01T05:41:29.223Z,58.83
2022-12-01T05:43:55.812Z,60.22
2022-12-01T05:46:22.521Z,54.60
2022-12-01T05:48:49.224Z,50.25
2022-12-01T05:51:17.009Z,55.78
2022-12-01T05:53:44.222Z,64.00
2022-12-01T05:56:11.381Z,58.72
2022-12-01T05:58:38.130Z,53.63
2022-12-01T06:01:04.875Z,48.17
2022-12-01T06:03:31.434Z,58.15
2022-12-01T06:05:58.471Z,51.22
2022-12-01T06:08:25.596Z,55.22
2022-12-01T06:10:52.615Z,58.72
2022-12-01T06:13:19.635Z,55.60
2022-12-01T06:15:46.222Z,61.10
2022-12-01T06:18:12.885Z,54.00
2022-12-01T06:20:39.570Z,52.67
2022-12-01T06:23:06.165Z,62.35
2022-12-01T06:25:33.329Z,61.33
2022-12-01T06:27:59.995Z,57.70
2022-12-01T06:30:26.715Z,54.10
2022-12-01T06:32:53.896Z,62.70
2022-12-01T06:35:20.551Z,54.97
2022-12-01T06:37:47.132Z,61.22
2022-12-01T06:40:14.040Z,58.00
2022-12-01T06:42:40.561Z,59.40
2022-12-01T06:45:08.007Z,54.97
2022-12-01T06:47:34.893Z,59.63
2022-12-01T06:50:01.532Z,57.95
2022-12-01T06:52:28.851Z,58.65
2022-12-01T06:54:55.341Z,58.25
2022-12-01T06:57:22.536Z,62.45
2022-12-01T06:59:49.495Z,60.75
2022-12-01T07:02:17.096Z,56.85
2022-12-01T07:04:43.638Z,62.83
2022-12-01T07:07:11.227Z,66.88
2022-12-01T07:09:37.811Z,64.88
2022-12-01T07:12:04.380Z,52.42
2022-12-01T07:14:31.723Z,66.22
2022-12-01T07:16:59.869Z,60.28
2022-12-01T07:19:26.474Z,55.53
2022-12-01T07:21:53.461Z,63.17
2022-12-01T07:24:20.022Z,67.05
2022-12-01T07:26:46.588Z,63.55
2022-12-01T07:29:13.171Z,56.70
2022-12-01T07:31:39.755Z,56.55
2022-12-01T07:34:06.813Z,66.18
2022-12-01T07:36:33.674Z,59.95
2022-12-01T07:39:04.368Z,63.22
2022-12-01T07:41:30.925Z,63.95
2022-12-01T07:43:57.882Z,73.32
2022-12-01T07:46:26.497Z,65.22
2022-12-01T07:48:54.601Z,65.47
2022-12-01T07:51:23.222Z,58.97
2022-12-01T07:53:51.314Z,54.53
2022-12-01T07:56:19.317Z,64.05
2022-12-01T07:58:46.017Z,65.30
2022-12-01T08:01:19.400Z,60.42
2022-12-01T08:03:48.723Z,56.85
2022-12-01T08:06:16.246Z,71.82
2022-12-01T08:08:43.194Z,63.97
2022-12-01T08:11:18.934Z,64.75
2022-12-01T08:13:45.860Z,63.10
2022-12-01T08:16:14.692Z,63.13
2022-12-01T08:18:43.427Z,63.13
2022-12-01T08:21:13.583Z,61.63
2022-12-01T08:23:41.095Z,63.58
2022-12-01T08:26:16.646Z,59.17
2022-12-01T08:28:43.822Z,64.03
2022-12-01T08:31:24.306Z,66.50
2022-12-01T08:33:51.718Z,62.85
2022-12-01T08:36:19.999Z,63.00
2022-12-01T08:38:48.933Z,57.42
2022-12-01T08:41:15.851Z,55.22
2022-12-01T08:44:00.467Z,61.65
2022-12-01T08:46:36.321Z,60.30
2022-12-01T08:49:06.650Z,58.88
2022-12-01T08:51:33.245Z,64.28
2022-12-01T08:54:00.257Z,57.17
2022-12-01T08:56:45.505Z,57.28
2022-12-01T08:59:12.184Z,53.53
2022-12-01T09:01:52.133Z,52.25
2022-12-01T09:04:23.554Z,59.88
2022-12-01T09:06:51.604Z,56.08
2022-12-01T09:09:21.516Z,64.38
2022-12-01T09:11:48.461Z,68.78
2022-12-01T09:14:17.623Z,62.50
2022-12-01T09:16:46.410Z,56.50
2022-12-01T09:19:19.219Z,63.92
2022-12-01T09:21:50.190Z,56.08
2022-12-01T09:24:16.785Z,59.00
2022-12-01T09:26:43.493Z,61.95
2022-12-01T09:29:13.597Z,61.63
2022-12-01T09:31:41.241Z,67.78
2022-12-01T09:34:13.844Z,59.33
2022-12-01T09:36:40.546Z,70.05
2022-12-01T09:39:09.068Z,75.60
2022-12-01T09:41:40.584Z,72.93
2022-12-01T09:44:14.021Z,61.70
2022-12-01T09:46:48.457Z,69.78
2022-12-01T09:49:25.328Z,71.90
2022-12-01T09:51:54.329Z,66.88
2022-12-01T09:54:21.359Z,70.10
2022-12-01T09:56:52.931Z,73.18
2022-12-01T09:59:25.528Z,66.72
2022-12-01T10:02:13.266Z,67.22
2022-12-01T10:04:46.947Z,67.85
2022-12-01T10:07:40.029Z,61.75
2022-12-01T10:10:21.152Z,67.70
2022-12-01T10:12:47.874Z,60.92
2022-12-01T10:15:34.839Z,66.82
2022-12-01T10:18:10.440Z,65.13
2022-12-01T10:20:46.446Z,68.45
2022-12-01T10:23:25.316Z,64.43
2022-12-01T10:26:00.785Z,62.83
2022-12-01T10:29:12.972Z,68.82
2022-12-01T10:31:48.857Z,55.85
2022-12-01T10:34:25.189Z,55.83
2022-12-01T10:36:52.259Z,58.25
2022-12-01T10:39:31.388Z,60.78
2022-12-01T10:42:06.758Z,65.60
2022-12-01T10:44:35.164Z,59.25
2022-12-01T10:47:02.267Z,56.70
2022-12-01T10:49:38.468Z,64.55
2022-12-01T10:52:05.163Z,62.72
2022-12-01T10:54:35.571Z,62.75
2022-12-01T10:57:03.170Z,63.58
2022-12-01T10:59:50.283Z,64.15
2022-12-01T11:02:24.540Z,60.90
2022-12-01T11:04:55.105Z,58.53
2022-12-01T11:07:27.046Z,59.85
2022-12-01T11:10:20.333Z,64.47
2022-12-01T11:12:57.918Z,63.97
2022-12-01T11:15:27.498Z,55.20
2022-12-01T11:18:25.026Z,63.10
2022-12-01T11:21:16.750Z,57.50
2022-12-01T11:23:47.416Z,56.50
2022-12-01T11:26:20.724Z,48.15
2022-12-01T11:28:56.422Z,50.00
2022-12-01T11:31:37.371Z,53.47
2022-12-01T11:34:04.532Z,55.20
2022-12-01T11:36:50.777Z,61.90
2022-12-01T11:39:32.437Z,45.38
2022-12-01T11:42:06.242Z,55.33
2022-12-01T11:44:50.913Z,48.80
2022-12-01T11:47:25.081Z,48.88
2022-12-01T11:50:04.020Z,47.00
2022-12-01T11:52:33.638Z,53.67
2022-12-01T11:55:21.990Z,49.67
2022-12-01T11:57:52.588Z,47.95
2022-12-01T12:00:25.352Z,45.45
2022-12-01T12:03:16.029Z,41.47
2022-12-01T12:06:38.444Z,43.17
2022-12-01T12:09:10.874Z,39.28
2022-12-01T12:12:10.023Z,45.10
2022-12-01T12:14:42.324Z,47.08
2022-12-01T12:17:17.286Z,46.17
2022-12-01T12:23:02.569Z,52.42
2022-12-01T12:25:47.930Z,48.35
2022-12-01T12:28:23.430Z,41.78
2022-12-01T12:31:10.346Z,40.47
2022-12-01T12:33:48.783Z,42.47
2022-12-01T12:36:28.710Z,45.28
2022-12-01T12:39:16.737Z,46.55
2022-12-01T12:41:47.736Z,45.75
2022-12-01T12:44:47.330Z,47.10
2022-12-01T12:47:35.094Z,45.80
2022-12-01T12:50:29.532Z,39.40
2022-12-01T12:53:02.523Z,39.28
2022-12-01T12:55:47.229Z,43.65
2022-12-01T12:58:32.982Z,38.25
2022-12-01T13:01:24.078Z,35.92
2022-12-01T13:04:13.655Z,36.53
2022-12-01T13:07:02.958Z,35.45
2022-12-01T13:09:39.834Z,35.70
2022-12-01T13:12:15.921Z,33.42
2022-12-01T13:14:56.487Z,37.67
2022-12-01T13:17:36.382Z,27.40
2022-12-01T13:20:05.668Z,32.50
2022-12-01T13:22:36.599Z,31.55
2022-12-01T13:25:04.302Z,28.48
2022-12-01T13:27:38.457Z,31.70
2022-12-01T13:30:14.724Z,37.10
2022-12-01T13:32:43.137Z,30.40
2022-12-01T13:35:33.716Z,33.83
2022-12-01T13:38:21.339Z,33.85
2022-12-01T13:40:49.561Z,33.35
2022-12-01T13:43:21.694Z,29.38
2022-12-01T13:45:50.274Z,31.35
2022-12-01T13:48:50.629Z,29.35
2022-12-01T13:51:18.007Z,31.38
2022-12-01T13:54:29.333Z,32.22
2022-12-01T13:57:03.096Z,30.90
2022-12-01T14:00:00.764Z,29.50
2022-12-01T14:02:33.496Z,35.45
2022-12-01T14:05:41.801Z,31.15
2022-12-01T14:08:23.466Z,31.60
2022-12-01T14:11:07.501Z,31.52
2022-12-01T14:14:12.703Z,30.92
2022-12-01T14:16:47.477Z,31.42
2022-12-01T14:19:39.570Z,31.38
2022-12-01T14:22:27.201Z,24.52
2022-12-01T14:24:54.005Z,29.40
2022-12-01T14:27:42.249Z,27.10
2022-12-01T14:30:40.720Z,26.63
2022-12-01T14:33:41.558Z,23.55
2022-12-01T14:36:23.098Z,26.48
2022-12-01T14:39:00.894Z,29.13
2022-12-01T14:41:50.998Z,26.35
2022-12-01T14:44:35.470Z,23.65
2022-12-01T14:47:19.896Z,22.77
2022-12-01T14:50:12.230Z,27.73
2022-12-01T14:52:47.050Z,27.55
2022-12-01T14:55:26.036Z,25.85
2022-12-01T14:58:01.456Z,24.63
2022-12-01T15:00:31.702Z,24.67
2022-12-01T15:03:01.829Z,24.98
2022-12-01T15:05:31.524Z,21.25
2022-12-01T15:08:45.721Z,30.73
2022-12-01T15:11:25.888Z,26.17
2022-12-01T15:13:57.213Z,24.80
2022-12-01T15:16:26.731Z,28.45
2022-12-01T15:18:53.636Z,24.73
2022-12-01T15:21:25.119Z,28.48
2022-12-01T15:24:20.273Z,25.77
2022-12-01T15:26:53.353Z,26.88
2022-12-01T15:29:36.938Z,24.92
2022-12-01T15:32:09.050Z,21.25
2022-12-01T15:34:39.946Z,29.90
2022-12-01T15:37:18.471Z,24.33
2022-12-01T15:39:57.729Z,25.13
2022-12-01T15:42:35.574Z,27.55
2022-12-01T15:45:17.043Z,26.00
2022-12-01T15:47:43.627Z,31.65
2022-12-01T15:50:42.768Z,24.30
2022-12-01T15:53:27.596Z,26.48
2022-12-01T15:55:58.968Z,24.40
2022-12-01T15:58:33.024Z,27.55
2022-12-01T16:01:04.735Z,26.27
2022-12-01T16:03:34.224Z,31.02
2022-12-01T16:06:01.156Z,32.08
2022-12-01T16:08:28.370Z,27.95
2022-12-01T16:11:14.793Z,22.88
2022-12-01T16:14:00.458Z,22.92
2022-12-01T16:16:51.152Z,20.08
2022-12-01T16:19:17.776Z,21.58
2022-12-01T16:21:51.934Z,26.45
2022-12-01T16:24:50.069Z,17.53
2022-12-01T16:27:23.828Z,18.67
2022-12-01T16:29:55.443Z,17.92
2022-12-01T16:32:43.136Z,24.85
2022-12-01T16:35:24.565Z,18.48
2022-12-01T16:37:51.143Z,19.92
2022-12-01T16:40:17.685Z,20.17
2022-12-01T16:42:44.880Z,19.35
2022-12-01T16:45:14.878Z,23.95
2022-12-01T16:47:42.571Z,19.88
2022-12-01T16:50:17.113Z,19.95
2022-12-01T16:52:45.606Z,19.23
2022-12-01T16:55:40.568Z,21.75
2022-12-01T16:58:07.191Z,20.52
2022-12-01T17:00:33.997Z,23.10
2022-12-01T17:03:01.273Z,20.60
2022-12-01T17:05:28.188Z,19.60
2022-12-01T17:07:54.862Z,22.58
2022-12-01T17:10:22.301Z,22.80
2022-12-01T17:12:49.195Z,18.20
2022-12-01T17:15:17.562Z,20.05
2022-12-01T17:17:45.044Z,20.00
2022-12-01T17:20:12.032Z,20.92
2022-12-01T17:22:38.825Z,21.42
2022-12-01T17:25:06.540Z,23.20
2022-12-01T17:27:33.081Z,26.42
2022-12-01T17:30:00.721Z,24.23
2022-12-01T17:32:27.709Z,22.60
2022-12-01T17:34:55.411Z,24.60
2022-12-01T17:37:21.995Z,22.88
2022-12-01T17:39:49.644Z,22.35
2022-12-01T17:42:17.001Z,26.40
2022-12-01T17:44:43.562Z,23.63
2022-12-01T17:47:10.413Z,24.77
2022-12-01T17:49:37.284Z,20.63
2022-12-01T17:52:04.894Z,21.40
2022-12-01T17:54:31.745Z,22.65
2022-12-01T17:56:58.641Z,20.63
2022-12-01T17:59:25.189Z,22.52
2022-12-01T18:01:51.776Z,24.27
2022-12-01T18:04:18.516Z,20.48
2022-12-01T18:06:49.305Z,24.55
2022-12-01T18:09:20.243Z,28.95
2022-12-01T18:11:46.803Z,20.00
2022-12-01T18:14:16.938Z,24.08
2022-12-01T18:16:45.193Z,21.13
2022-12-01T18:19:12.602Z,21.77
2022-12-01T18:21:39.811Z,19.55
2022-12-01T18:24:08.995Z,23.80
2022-12-01T18:26:37.208Z,27.02
2022-12-01T18:29:08.144Z,24.67
2022-12-01T18:31:35.499Z,23.88
2022-12-01T18:34:04.175Z,27.67
2022-12-01T18:36:32.486Z,26.17
2022-12-01T18:39:01.078Z,24.10
2022-12-01T18:41:28.117Z,28.88
2022-12-01T18:43:54.878Z,23.63
2022-12-01T18:46:22.881Z,25.98
2022-12-01T18:49:00.743Z,28.98
2022-12-01T18:51:28.412Z,27.58
2022-12-01T18:53:59.432Z,30.50
2022-12-01T18:56:26.892Z,30.80
2022-12-01T18:58:55.346Z,25.02
2022-12-01T19:01:25.209Z,27.30
2022-12-01T19:03:52.077Z,27.02
2022-12-01T19:06:19.008Z,28.30
2022-12-01T19:08:45.846Z,25.58
2022-12-01T19:11:12.584Z,24.75
2022-12-01T19:13:39.158Z,28.50
2022-12-01T19:16:08.067Z,29.45
2022-12-01T19:18:36.185Z,24.00
2022-12-01T19:21:04.553Z,31.48
2022-12-01T19:23:32.169Z,28.77
2022-12-01T19:25:58.947Z,27.48
2022-12-01T19:28:25.516Z,27.38
2022-12-01T19:30:52.544Z,25.20
2022-12-01T19:33:19.107Z,27.95
2022-12-01T19:35:45.664Z,30.73
2022-12-01T19:38:12.375Z,29.58
2022-12-01T19:40:38.956Z,30.48
2022-12-01T19:43:05.716Z,29.60
2022-12-01T19:45:33.429Z,29.85
2022-12-01T19:48:00.127Z,35.33
2022-12-01T19:50:26.623Z,29.90
2022-12-01T19:52:53.217Z,32.90
2022-12-01T19:55:19.792Z,38.90
2022-12-01T19:57:51.453Z,30.80
2022-12-01T20:00:19.852Z,37.80
2022-12-01T20:02:46.433Z,35.58
2022-12-01T20:05:13.317Z,32.80
2022-12-01T20:07:41.801Z,32.17
2022-12-01T20:10:08.949Z,34.67
2022-12-01T20:12:35.555Z,39.85
2022-12-01T20:15:03.830Z,34.95
2022-12-01T20:17:30.566Z,36.75
2022-12-01T20:19:57.117Z,45.15
2022-12-01T20:22:23.669Z,42.45
2022-12-01T20:24:50.338Z,39.28
2022-12-01T20:27:17.067Z,36.13
2022-12-01T20:29:43.588Z,47.95
2022-12-01T20:32:11.179Z,41.95
2022-12-01T20:34:37.767Z,39.90
2022-12-01T20:37:04.717Z,43.63
2022-12-01T20:39:34.567Z,42.30
2022-12-01T20:42:01.216Z,45.33
2022-12-01T20:44:27.849Z,42.42
2022-12-01T20:46:54.354Z,44.80
2022-12-01T20:49:21.537Z,42.60
2022-12-01T20:51:48.627Z,49.88
2022-12-01T20:54:27.908Z,42.42
2022-12-01T20:56:55.190Z,45.47
2022-12-01T20:59:21.749Z,38.83
2022-12-01T21:01:48.295Z,49.88
2022-12-01T21:04:15.507Z,50.20
2022-12-01T21:06:43.472Z,42.45
2022-12-01T21:09:10.689Z,47.35
2022-12-01T21:12:03.960Z,44.00
2022-12-01T21:14:38.048Z,51.75
2022-12-01T21:17:18.765Z,45.47
2022-12-01T21:19:54.705Z,48.20
2022-12-01T21:22:21.281Z,47.53
2022-12-01T21:24:51.660Z,46.30
2022-12-01T21:27:18.573Z,51.38
2022-12-01T21:29:47.694Z,44.72
2022-12-01T21:32:15.789Z,51.22
2022-12-01T21:34:43.297Z,56.75
2022-12-01T21:37:24.197Z,53.55
2022-12-01T21:39:52.847Z,53.92
2022-12-01T21:42:27.791Z,60.45
2022-12-01T21:44:56.168Z,62.65
2022-12-01T21:47:28.014Z,61.83
2022-12-01T21:49:57.855Z,58.92
2022-12-01T21:52:39.161Z,60.25
2022-12-01T21:55:14.800Z,58.15
2022-12-01T21:57:48.271Z,58.03
2022-12-01T22:00:23.623Z,66.25
2022-12-01T22:02:53.292Z,59.95
2022-12-01T22:05:35.567Z,60.67
2022-12-01T22:08:14.135Z,63.63
2022-12-01T22:11:05.429Z,54.75
2022-12-01T22:13:43.807Z,69.93
2022-12-01T22:16:19.092Z,70.40
2022-12-01T22:18:49.844Z,65.40
2022-12-01T22:21:22.385Z,69.20
2022-12-01T22:23:50.246Z,72.03
2022-12-01T22:26:20.302Z,69.18
2022-12-01T22:28:52.255Z,69.57
2022-12-01T22:31:22.225Z,65.90
2022-12-01T22:33:59.999Z,76.80
2022-12-01T22:36:31.791Z,69.55
2022-12-01T22:38:58.712Z,64.95
2022-12-01T22:41:26.931Z,70.18
2022-12-01T22:43:59.710Z,71.18
2022-12-01T22:46:32.514Z,67.20
2022-12-01T22:49:13.807Z,73.72
2022-12-01T22:51:45.286Z,70.15
2022-12-01T22:54:14.876Z,68.50
2022-12-01T22:56:44.245Z,68.35
2022-12-01T22:59:16.140Z,73.30
2022-12-01T23:01:55.101Z,69.60
2022-12-01T23:04:31.237Z,65.82
2022-12-01T23:07:08.564Z,72.60
2022-12-01T23:09:43.274Z,75.18
2022-12-01T23:12:09.759Z,76.80
2022-12-01T23:14:41.433Z,74.32
2022-12-01T23:17:15.351Z,71.45
2022-12-01T23:19:42.024Z,72.15
2022-12-01T23:22:09.857Z,78.85
2022-12-01T23:24:36.375Z,77.55
2022-12-01T23:27:02.958Z,73.30
2022-12-01T23:29:30.396Z,72.20
2022-12-01T23:31:57.556Z,68.88
2022-12-01T23:34:24.381Z,74.88
2022-12-01T23:36:51.116Z,71.70
2022-12-01T23:39:19.026Z,75.30
2022-12-01T23:41:51.144Z,76.82
2022-12-01T23:44:24.002Z,71.75
2022-12-01T23:46:53.648Z,70.25
2022-12-01T23:49:23.135Z,74.07
2022-12-01T23:51:55.326Z,67.75
2022-12-01T23:54:27.009Z,75.82
2022-12-01T23:56:56.638Z,75.63
2022-12-01T23:59:23.508Z,70.20
